createdAt,value
2022-08-21T00:00:42.387Z,101073.19
2022-08-21T00:03:13.605Z,101081.69
2022-08-21T00:05:47.648Z,101078.31
2022-08-21T00:08:15.810Z,101076.34
2022-08-21T00:10:45.706Z,101082.97
2022-08-21T00:13:18.745Z,101078.19
2022-08-21T00:15:47.537Z,101089.59
2022-08-21T00:18:16.172Z,101078.53
2022-08-21T00:20:47.721Z,101077.47
2022-08-21T00:23:16.504Z,101074.84
2022-08-21T00:25:46.285Z,101071.09
2022-08-21T00:28:15.440Z,101068.38
2022-08-21T00:30:45.520Z,101073.59
2022-08-21T00:33:15.129Z,101070.44
2022-08-21T00:35:45.920Z,101073.88
2022-08-21T00:38:14.251Z,101077.16
2022-08-21T00:40:47.652Z,101076.59
2022-08-21T00:43:19.761Z,101085.94
2022-08-21T00:45:47.971Z,101081.03
2022-08-21T00:48:16.147Z,101087.19
2022-08-21T00:50:55.229Z,101088.28
2022-08-21T00:53:25.561Z,101086.41
2022-08-21T00:55:54.025Z,101079.34
2022-08-21T00:58:26.174Z,101076.72
2022-08-21T01:00:54.938Z,101072.75
2022-08-21T01:03:26.407Z,101070.00
2022-08-21T01:05:56.474Z,101076.44
2022-08-21T01:08:25.627Z,101076.59
2022-08-21T01:10:56.980Z,101072.00
2022-08-21T01:13:26.340Z,101082.09
2022-08-21T01:15:58.611Z,101080.31
2022-08-21T01:18:26.864Z,101074.03
2022-08-21T01:21:08.355Z,101075.34
2022-08-21T01:23:38.745Z,101073.13
2022-08-21T01:26:08.364Z,101074.34
2022-08-21T01:28:44.789Z,101071.72
2022-08-21T01:31:26.260Z,101074.19
2022-08-21T01:33:56.464Z,101072.28
2022-08-21T01:36:27.620Z,101068.34
2022-08-21T01:38:55.636Z,101071.25
2022-08-21T01:41:23.820Z,101076.47
2022-08-21T01:43:52.061Z,101080.72
2022-08-21T01:46:20.256Z,101082.25
2022-08-21T01:48:48.165Z,101087.41
2022-08-21T01:51:16.208Z,101083.03
2022-08-21T01:53:45.421Z,101084.53
2022-08-21T01:56:17.746Z,101087.16
2022-08-21T01:58:48.843Z,101087.25
2022-08-21T02:01:17.034Z,101075.97
2022-08-21T02:03:44.972Z,101084.25
2022-08-21T02:06:18.870Z,101082.28
2022-08-21T02:08:49.163Z,101084.59
2022-08-21T02:11:17.270Z,101091.22
2022-08-21T02:13:45.147Z,101079.66
2022-08-21T02:16:17.301Z,101088.00
2022-08-21T02:18:48.102Z,101086.66
2022-08-21T02:21:16.537Z,101082.06
2022-08-21T02:23:44.756Z,101081.72
2022-08-21T02:26:14.482Z,101086.34
2022-08-21T02:28:43.264Z,101078.97
2022-08-21T02:31:11.939Z,101076.22
2022-08-21T02:33:39.994Z,101075.53
2022-08-21T02:36:09.973Z,101078.31
2022-08-21T02:38:42.524Z,101079.41
2022-08-21T02:41:16.220Z,101079.41
2022-08-21T02:43:44.663Z,101077.28
2022-08-21T02:46:16.227Z,101073.97
2022-08-21T02:48:44.211Z,101078.97
2022-08-21T02:51:15.944Z,101074.25
2022-08-21T02:53:44.643Z,101067.59
2022-08-21T02:56:18.101Z,101077.00
2022-08-21T02:58:51.893Z,101078.28
2022-08-21T03:01:21.274Z,101076.22
2022-08-21T03:03:51.767Z,101079.56
2022-08-21T03:06:22.551Z,101072.56
2022-08-21T03:08:51.845Z,101081.44
2022-08-21T03:11:21.718Z,101084.09
2022-08-21T03:13:49.535Z,101088.59
2022-08-21T03:16:17.384Z,101074.66
2022-08-21T03:18:45.214Z,101071.09
2022-08-21T03:21:14.099Z,101071.59
2022-08-21T03:23:42.947Z,101067.78
2022-08-21T03:26:12.510Z,101076.94
2022-08-21T03:28:41.957Z,101085.09
2022-08-21T03:31:09.826Z,101077.00
2022-08-21T03:33:37.719Z,101075.28
2022-08-21T03:36:09.587Z,101075.38
2022-08-21T03:38:39.727Z,101076.31
2022-08-21T03:41:08.973Z,101072.84
2022-08-21T03:43:37.331Z,101077.00
2022-08-21T03:46:08.192Z,101075.72
2022-08-21T03:48:39.243Z,101082.69
2022-08-21T03:51:08.509Z,101087.94
2022-08-21T03:53:37.324Z,101076.72
2022-08-21T03:56:07.027Z,101082.69
2022-08-21T03:58:35.471Z,101083.81
2022-08-21T04:01:07.134Z,101082.41
2022-08-21T04:03:38.071Z,101088.19
2022-08-21T04:06:07.413Z,101091.75
2022-08-21T04:08:35.828Z,101096.97
2022-08-21T04:11:04.280Z,101096.06
2022-08-21T04:13:32.199Z,101095.19
2022-08-21T04:16:00.278Z,101097.22
2022-08-21T04:18:29.832Z,101103.25
2022-08-21T04:21:01.672Z,101097.31
2022-08-21T04:23:30.641Z,101098.41
2022-08-21T04:25:59.268Z,101097.31
2022-08-21T04:28:30.440Z,101104.72
2022-08-21T04:30:59.839Z,101099.59
2022-08-21T04:33:30.166Z,101091.94
2022-08-21T04:35:57.998Z,101099.06
2022-08-21T04:38:25.870Z,101093.81
2022-08-21T04:40:54.637Z,101095.53
2022-08-21T04:43:24.333Z,101101.03
2022-08-21T04:45:54.216Z,101099.06
2022-08-21T04:48:25.102Z,101101.91
2022-08-21T04:51:01.484Z,101106.91
2022-08-21T04:53:39.033Z,101104.09
2022-08-21T04:56:13.680Z,101101.03
2022-08-21T04:58:43.452Z,101104.44
2022-08-21T05:01:19.197Z,101109.53
2022-08-21T05:03:51.220Z,101097.16
2022-08-21T05:06:22.310Z,101104.59
2022-08-21T05:08:57.138Z,101104.13
2022-08-21T05:11:31.818Z,101116.50
2022-08-21T05:14:00.334Z,101112.38
2022-08-21T05:16:37.368Z,101113.56
2022-08-21T05:19:06.603Z,101108.66
2022-08-21T05:21:39.435Z,101110.91
2022-08-21T05:24:07.592Z,101108.91
2022-08-21T05:26:45.366Z,101107.03
2022-08-21T05:29:16.393Z,101110.63
2022-08-21T05:31:44.633Z,101115.38
2022-08-21T05:34:12.831Z,101119.38
2022-08-21T05:36:46.517Z,101121.81
2022-08-21T05:39:14.806Z,101126.97
2022-08-21T05:41:42.971Z,101130.94
2022-08-21T05:44:11.377Z,101132.91
2022-08-21T05:46:39.878Z,101133.53
2022-08-21T05:49:07.715Z,101130.09
2022-08-21T05:51:36.225Z,101129.06
2022-08-21T05:54:05.770Z,101126.78
2022-08-21T05:56:34.152Z,101133.91
2022-08-21T05:59:01.964Z,101140.94
2022-08-21T06:01:31.628Z,101136.84
2022-08-21T06:03:59.666Z,101140.09
2022-08-21T06:06:29.336Z,101139.59
2022-08-21T06:08:57.201Z,101131.78
2022-08-21T06:11:29.021Z,101137.75
2022-08-21T06:13:57.543Z,101141.69
2022-08-21T06:16:25.728Z,101135.00
2022-08-21T06:18:53.811Z,101139.59
2022-08-21T06:21:21.892Z,101134.03
2022-08-21T06:23:49.756Z,101129.50
2022-08-21T06:26:18.149Z,101131.19
2022-08-21T06:28:47.620Z,101139.56
2022-08-21T06:31:19.774Z,101130.25
2022-08-21T06:33:48.406Z,101136.44
2022-08-21T06:36:17.258Z,101138.59
2022-08-21T06:38:50.931Z,101142.28
2022-08-21T06:41:23.837Z,101131.78
2022-08-21T06:43:54.120Z,101135.97
2022-08-21T06:46:22.033Z,101138.94
2022-08-21T06:48:50.439Z,101139.47
2022-08-21T06:51:18.581Z,101142.59
2022-08-21T06:53:46.854Z,101136.56
2022-08-21T06:56:14.809Z,101146.06
2022-08-21T06:58:42.632Z,101136.16
2022-08-21T07:01:11.826Z,101133.03
2022-08-21T07:03:42.078Z,101130.78
2022-08-21T07:06:12.226Z,101139.88
2022-08-21T07:08:40.769Z,101132.25
2022-08-21T07:11:16.513Z,101131.63
2022-08-21T07:13:44.452Z,101135.03
2022-08-21T07:16:14.733Z,101133.22
2022-08-21T07:18:42.753Z,101126.34
2022-08-21T07:21:11.437Z,101127.59
2022-08-21T07:23:43.944Z,101123.38
2022-08-21T07:26:12.212Z,101122.59
2022-08-21T07:28:40.501Z,101125.84
2022-08-21T07:31:08.359Z,101129.97
2022-08-21T07:33:38.336Z,101118.09
2022-08-21T07:36:06.921Z,101116.38
2022-08-21T07:38:34.793Z,101114.06
2022-08-21T07:41:03.937Z,101113.72
2022-08-21T07:43:31.923Z,101124.00
2022-08-21T07:45:59.902Z,101121.38
2022-08-21T07:48:27.808Z,101115.16
2022-08-21T07:50:57.461Z,101120.84
2022-08-21T07:53:25.276Z,101117.81
2022-08-21T07:55:53.124Z,101119.13
2022-08-21T07:58:20.965Z,101124.38
2022-08-21T08:00:49.156Z,101118.72
2022-08-21T08:03:20.561Z,101125.41
2022-08-21T08:05:59.391Z,101119.00
2022-08-21T08:08:28.572Z,101113.88
2022-08-21T08:10:59.954Z,101120.09
2022-08-21T08:13:28.035Z,101120.44
2022-08-21T08:15:55.895Z,101114.19
2022-08-21T08:18:24.025Z,101118.56
2022-08-21T08:20:51.924Z,101119.31
2022-08-21T08:23:21.096Z,101116.16
2022-08-21T08:25:49.145Z,101115.63
2022-08-21T08:28:17.921Z,101108.28
2022-08-21T08:30:47.313Z,101120.22
2022-08-21T08:33:16.560Z,101114.63
2022-08-21T08:35:48.509Z,101126.25
2022-08-21T08:38:20.773Z,101129.94
2022-08-21T08:41:02.830Z,101130.38
2022-08-21T08:43:33.718Z,101128.88
2022-08-21T08:46:08.301Z,101127.72
2022-08-21T08:48:53.261Z,101132.41
2022-08-21T08:51:29.836Z,101126.34
2022-08-21T08:54:04.685Z,101129.28
2022-08-21T08:56:36.002Z,101119.75
2022-08-21T08:59:15.256Z,101116.75
2022-08-21T09:01:44.392Z,101118.28
2022-08-21T09:04:14.486Z,101122.81
2022-08-21T09:07:14.533Z,101111.97
2022-08-21T09:10:05.235Z,101116.06
2022-08-21T09:12:50.828Z,101121.31
2022-08-21T09:15:33.923Z,101117.34
2022-08-21T09:18:19.774Z,101119.03
2022-08-21T09:21:04.017Z,101123.91
2022-08-21T09:23:44.267Z,101117.66
2022-08-21T09:26:17.351Z,101116.00
2022-08-21T09:28:53.350Z,101114.78
2022-08-21T09:31:27.332Z,101121.22
2022-08-21T09:34:00.916Z,101116.88
2022-08-21T09:36:42.325Z,101115.97
2022-08-21T09:39:14.261Z,101110.50
2022-08-21T09:41:42.835Z,101107.59
2022-08-21T09:44:12.034Z,101106.84
2022-08-21T09:46:40.001Z,101101.13
2022-08-21T09:49:13.459Z,101101.53
2022-08-21T09:51:55.078Z,101108.47
2022-08-21T09:54:31.752Z,101107.03
2022-08-21T09:57:20.397Z,101105.53
2022-08-21T09:59:49.656Z,101104.50
2022-08-21T10:02:28.965Z,101112.81
2022-08-21T10:05:02.325Z,101115.63
2022-08-21T10:07:33.849Z,101107.84
2022-08-21T10:10:06.808Z,101107.09
2022-08-21T10:12:51.829Z,101105.50
2022-08-21T10:15:33.520Z,101106.03
2022-08-21T10:18:14.897Z,101100.19
2022-08-21T10:20:53.201Z,101105.09
2022-08-21T10:23:42.286Z,101107.97
2022-08-21T10:26:33.137Z,101104.63
2022-08-21T10:29:14.611Z,101105.66
2022-08-21T10:31:54.650Z,101110.38
2022-08-21T10:34:41.751Z,101102.84
2022-08-21T10:37:28.589Z,101105.22
2022-08-21T10:40:17.480Z,101110.44
2022-08-21T10:43:15.552Z,101101.63
2022-08-21T10:46:04.738Z,101102.66
2022-08-21T10:48:41.482Z,101102.44
2022-08-21T10:51:28.897Z,101105.16
2022-08-21T10:54:07.370Z,101098.84
2022-08-21T10:56:42.281Z,101106.66
2022-08-21T10:59:33.253Z,101102.16
2022-08-21T11:02:15.249Z,101098.41
2022-08-21T11:05:04.441Z,101104.47
2022-08-21T11:07:38.148Z,101089.00
2022-08-21T11:10:14.726Z,101094.94
2022-08-21T11:12:51.674Z,101086.44
2022-08-21T11:15:33.999Z,101096.41
2022-08-21T11:18:21.259Z,101098.66
2022-08-21T11:21:05.764Z,101098.16
2022-08-21T11:23:46.106Z,101099.78
2022-08-21T11:26:25.516Z,101099.00
2022-08-21T11:29:03.375Z,101085.63
2022-08-21T11:31:49.029Z,101090.16
2022-08-21T11:34:37.342Z,101087.63
2022-08-21T11:37:18.078Z,101091.56
2022-08-21T11:40:04.489Z,101086.06
2022-08-21T11:42:47.920Z,101091.19
2022-08-21T11:45:28.377Z,101090.66
2022-08-21T11:48:14.094Z,101089.28
2022-08-21T11:50:45.816Z,101082.94
2022-08-21T11:53:22.271Z,101080.91
2022-08-21T11:55:58.893Z,101076.19
2022-08-21T11:58:38.121Z,101083.06
2022-08-21T12:01:11.438Z,101091.00
2022-08-21T12:03:44.846Z,101080.16
2022-08-21T12:06:24.466Z,101085.91
2022-08-21T12:09:04.205Z,101082.97
2022-08-21T12:11:32.814Z,101081.91
2022-08-21T12:14:15.433Z,101082.16
2022-08-21T12:16:47.088Z,101077.88
2022-08-21T12:19:31.875Z,101077.34
2022-08-21T12:22:11.587Z,101065.63
2022-08-21T12:24:44.996Z,101062.31
2022-08-21T12:27:28.059Z,101061.66
2022-08-21T12:30:02.318Z,101063.34
2022-08-21T12:32:43.723Z,101064.16
2022-08-21T12:35:23.254Z,101061.66
2022-08-21T12:38:03.231Z,101060.50
2022-08-21T12:40:42.289Z,101065.28
2022-08-21T12:43:20.581Z,101057.41
2022-08-21T12:45:53.347Z,101055.25
2022-08-21T12:48:28.935Z,101062.56
2022-08-21T12:51:01.615Z,101055.28
2022-08-21T12:53:36.632Z,101060.06
2022-08-21T12:56:11.804Z,101057.44
2022-08-21T12:58:46.804Z,101054.59
2022-08-21T13:01:24.607Z,101048.41
2022-08-21T13:04:04.144Z,101046.75
2022-08-21T13:06:41.310Z,101051.03
2022-08-21T13:09:14.768Z,101051.13
2022-08-21T13:11:47.615Z,101050.34
2022-08-21T13:14:27.123Z,101045.47
2022-08-21T13:16:57.753Z,101044.56
2022-08-21T13:19:30.570Z,101046.09
2022-08-21T13:21:58.856Z,101044.00
2022-08-21T13:24:42.313Z,101044.19
2022-08-21T13:27:27.426Z,101051.25
2022-08-21T13:30:11.726Z,101048.25
2022-08-21T13:32:45.575Z,101044.69
2022-08-21T13:35:20.926Z,101050.63
2022-08-21T13:37:52.720Z,101051.94
2022-08-21T13:40:27.317Z,101041.31
2022-08-21T13:42:58.244Z,101055.22
2022-08-21T13:45:31.935Z,101056.00
2022-08-21T13:48:06.486Z,101046.22
2022-08-21T13:50:39.382Z,101051.59
2022-08-21T13:53:21.789Z,101049.81
2022-08-21T13:55:50.733Z,101047.78
2022-08-21T13:58:29.601Z,101042.03
2022-08-21T14:01:01.246Z,101048.75
2022-08-21T14:03:38.326Z,101047.47
2022-08-21T14:06:16.515Z,101043.41
2022-08-21T14:08:51.625Z,101044.78
2022-08-21T14:11:20.351Z,101046.09
2022-08-21T14:13:58.282Z,101041.78
2022-08-21T14:16:29.898Z,101044.00
2022-08-21T14:19:19.319Z,101041.97
2022-08-21T14:21:47.869Z,101048.00
2022-08-21T14:24:30.393Z,101045.56
2022-08-21T14:27:06.685Z,101035.19
2022-08-21T14:29:40.019Z,101038.66
2022-08-21T14:32:21.949Z,101040.22
2022-08-21T14:34:54.699Z,101033.06
2022-08-21T14:37:23.287Z,101033.88
2022-08-21T14:39:51.504Z,101025.84
2022-08-21T14:42:19.640Z,101028.00
2022-08-21T14:44:49.417Z,101026.94
2022-08-21T14:47:17.644Z,101030.34
2022-08-21T14:49:45.540Z,101028.03
2022-08-21T14:52:13.367Z,101035.06
2022-08-21T14:54:41.301Z,101030.16
2022-08-21T14:57:13.026Z,101033.09
2022-08-21T14:59:41.491Z,101037.78
2022-08-21T15:02:11.648Z,101036.63
2022-08-21T15:04:39.649Z,101031.44
2022-08-21T15:07:07.526Z,101038.72
2022-08-21T15:09:35.361Z,101044.03
2022-08-21T15:12:06.065Z,101034.22
2022-08-21T15:14:40.992Z,101039.00
2022-08-21T15:17:13.020Z,101043.09
2022-08-21T15:19:41.266Z,101037.38
2022-08-21T15:22:18.700Z,101039.94
2022-08-21T15:24:48.343Z,101033.09
2022-08-21T15:27:20.229Z,101028.38
2022-08-21T15:29:48.149Z,101036.09
2022-08-21T15:32:25.449Z,101025.28
2022-08-21T15:34:55.432Z,101037.53
2022-08-21T15:37:25.806Z,101026.13
2022-08-21T15:39:55.222Z,101023.78
2022-08-21T15:42:24.498Z,101025.78
2022-08-21T15:44:54.425Z,101030.03
2022-08-21T15:47:30.360Z,101024.13
2022-08-21T15:49:58.444Z,101027.84
2022-08-21T15:52:26.392Z,101026.66
2022-08-21T15:54:54.716Z,101029.66
2022-08-21T15:57:25.843Z,101025.31
2022-08-21T15:59:58.791Z,101020.13
2022-08-21T16:02:32.375Z,101022.53
2022-08-21T16:05:01.350Z,101018.34
2022-08-21T16:07:29.161Z,101018.09
2022-08-21T16:09:57.110Z,101021.38
2022-08-21T16:12:28.944Z,101022.94
2022-08-21T16:14:56.896Z,101022.53
2022-08-21T16:17:32.520Z,101025.78
2022-08-21T16:20:02.224Z,101027.69
2022-08-21T16:22:42.172Z,101030.53
2022-08-21T16:25:14.236Z,101021.63
2022-08-21T16:27:46.076Z,101022.84
2022-08-21T16:30:16.663Z,101020.78
2022-08-21T16:32:47.899Z,101020.03
2022-08-21T16:35:20.771Z,101028.53
2022-08-21T16:37:52.969Z,101032.75
2022-08-21T16:40:23.125Z,101026.63
2022-08-21T16:42:51.406Z,101027.59
2022-08-21T16:45:22.162Z,101024.28
2022-08-21T16:47:51.494Z,101022.25
2022-08-21T16:50:25.767Z,101021.72
2022-08-21T16:52:54.489Z,101020.31
2022-08-21T16:55:22.486Z,101020.06
2022-08-21T16:57:50.381Z,101015.97
2022-08-21T17:00:18.312Z,101020.88
2022-08-21T17:02:53.433Z,101008.63
2022-08-21T17:05:21.784Z,101012.03
2022-08-21T17:07:49.774Z,101016.38
2022-08-21T17:10:19.104Z,101016.56
2022-08-21T17:12:55.798Z,101014.84
2022-08-21T17:15:28.340Z,101011.28
2022-08-21T17:17:57.619Z,101021.25
2022-08-21T17:20:26.383Z,101022.28
2022-08-21T17:22:55.339Z,101013.84
2022-08-21T17:25:23.497Z,101014.13
2022-08-21T17:27:52.222Z,101017.84
2022-08-21T17:30:21.468Z,101012.94
2022-08-21T17:32:53.818Z,101017.78
2022-08-21T17:35:23.324Z,101023.09
2022-08-21T17:37:53.306Z,101017.03
2022-08-21T17:40:22.286Z,101022.66
2022-08-21T17:42:50.407Z,101015.56
2022-08-21T17:45:21.519Z,101026.34
2022-08-21T17:47:49.388Z,101020.97
2022-08-21T17:50:23.521Z,101026.78
2022-08-21T17:52:52.498Z,101021.78
2022-08-21T17:55:22.551Z,101023.91
2022-08-21T17:57:53.329Z,101029.69
2022-08-21T18:00:24.782Z,101032.84
2022-08-21T18:03:02.930Z,101029.56
2022-08-21T18:05:33.548Z,101029.19
2022-08-21T18:08:01.585Z,101038.53
2022-08-21T18:10:30.016Z,101036.88
2022-08-21T18:12:58.776Z,101039.03
2022-08-21T18:15:27.057Z,101036.66
2022-08-21T18:17:55.185Z,101041.66
2022-08-21T18:20:24.584Z,101036.19
2022-08-21T18:22:53.796Z,101039.44
2022-08-21T18:25:21.836Z,101046.53
2022-08-21T18:27:51.061Z,101055.63
2022-08-21T18:30:25.557Z,101055.00
2022-08-21T18:32:56.095Z,101047.06
2022-08-21T18:35:24.483Z,101049.56
2022-08-21T18:37:53.727Z,101054.50
2022-08-21T18:40:22.323Z,101052.69
2022-08-21T18:42:55.784Z,101052.28
2022-08-21T18:45:27.085Z,101064.66
2022-08-21T18:47:58.296Z,101056.34
2022-08-21T18:50:29.197Z,101066.00
2022-08-21T18:52:58.526Z,101050.75
2022-08-21T18:55:27.380Z,101055.34
2022-08-21T18:57:57.331Z,101051.69
2022-08-21T19:00:30.455Z,101052.63
2022-08-21T19:02:59.399Z,101062.00
2022-08-21T19:05:28.020Z,101053.91
2022-08-21T19:07:58.018Z,101066.25
2022-08-21T19:10:29.369Z,101062.34
2022-08-21T19:13:00.596Z,101068.69
2022-08-21T19:15:29.754Z,101064.50
2022-08-21T19:17:59.535Z,101068.47
2022-08-21T19:20:34.347Z,101068.47
2022-08-21T19:23:07.426Z,101066.81
2022-08-21T19:25:36.674Z,101068.94
2022-08-21T19:28:11.653Z,101076.81
2022-08-21T19:30:45.955Z,101075.25
2022-08-21T19:33:35.969Z,101066.41
2022-08-21T19:36:06.010Z,101081.75
2022-08-21T19:38:35.721Z,101077.53
2022-08-21T19:41:08.147Z,101076.63
2022-08-21T19:43:43.504Z,101078.97
2022-08-21T19:46:12.851Z,101070.38
2022-08-21T19:48:40.767Z,101073.41
2022-08-21T19:51:14.730Z,101076.78
2022-08-21T19:53:44.112Z,101070.59
2022-08-21T19:56:23.333Z,101078.56
2022-08-21T19:58:52.352Z,101070.09
2022-08-21T20:01:24.656Z,101080.66
2022-08-21T20:03:55.460Z,101069.66
2022-08-21T20:06:26.494Z,101077.59
2022-08-21T20:08:56.503Z,101079.09
2022-08-21T20:11:35.531Z,101074.19
2022-08-21T20:14:03.669Z,101073.78
2022-08-21T20:16:32.199Z,101075.41
2022-08-21T20:19:03.427Z,101081.38
2022-08-21T20:21:43.686Z,101076.59
2022-08-21T20:24:15.517Z,101074.84
2022-08-21T20:32:22.644Z,101080.50
2022-08-21T20:34:51.935Z,101082.00
2022-08-21T20:37:22.386Z,101083.88
2022-08-21T20:40:11.462Z,101087.59
2022-08-21T20:42:40.634Z,101088.47
2022-08-21T20:45:10.520Z,101086.88
2022-08-21T20:47:40.233Z,101088.53
2022-08-21T20:50:14.487Z,101083.53
2022-08-21T20:52:43.298Z,101086.47
2022-08-21T20:55:18.142Z,101092.44
2022-08-21T20:57:57.692Z,101090.75
2022-08-21T21:00:33.725Z,101093.03
2022-08-21T21:03:10.800Z,101095.69
2022-08-21T21:05:49.024Z,101099.00
2022-08-21T21:08:25.251Z,101091.47
2022-08-21T21:10:59.387Z,101093.41
2022-08-21T21:13:34.445Z,101091.50
2022-08-21T21:16:12.814Z,101090.75
2022-08-21T21:18:46.144Z,101102.00
2022-08-21T21:21:25.180Z,101098.88
2022-08-21T21:24:03.400Z,101107.66
2022-08-21T21:26:39.602Z,101109.47
2022-08-21T21:29:22.122Z,101104.22
2022-08-21T21:31:52.919Z,101105.47
2022-08-21T21:34:22.264Z,101101.72
2022-08-21T21:37:03.825Z,101102.78
2022-08-21T21:39:44.618Z,101102.97
2022-08-21T21:42:30.560Z,101108.44
2022-08-21T21:45:20.493Z,101107.50
2022-08-21T21:48:21.128Z,101111.97
2022-08-21T21:51:00.976Z,101104.97
2022-08-21T21:53:51.616Z,101108.22
2022-08-21T21:56:32.839Z,101110.94
2022-08-21T21:59:25.867Z,101112.91
2022-08-21T22:02:07.085Z,101114.88
2022-08-21T22:04:51.112Z,101123.00
2022-08-21T22:07:32.194Z,101119.66
2022-08-21T22:10:19.837Z,101118.03
2022-08-21T22:13:11.157Z,101124.91
2022-08-21T22:15:41.602Z,101119.31
2022-08-21T22:18:16.047Z,101123.94
2022-08-21T22:20:53.854Z,101118.69
2022-08-21T22:23:28.942Z,101126.63
2022-08-21T22:26:05.256Z,101119.84
2022-08-21T22:28:42.262Z,101120.91
2022-08-21T22:31:22.235Z,101125.19
2022-08-21T22:34:14.298Z,101128.09
2022-08-21T22:36:55.478Z,101125.91
2022-08-21T22:39:37.776Z,101125.41
2022-08-21T22:42:13.492Z,101123.63
2022-08-21T22:44:53.822Z,101128.78
2022-08-21T22:47:27.136Z,101126.13
2022-08-21T22:50:02.300Z,101123.72
2022-08-21T22:52:36.874Z,101128.63
2022-08-21T22:58:20.714Z,101126.44
2022-08-21T23:00:55.334Z,101130.66
2022-08-21T23:03:34.231Z,101121.72
2022-08-21T23:06:22.229Z,101124.38
2022-08-21T23:08:52.352Z,101122.56
2022-08-21T23:11:25.308Z,101133.28
2022-08-21T23:13:56.953Z,101125.69
2022-08-21T23:16:47.530Z,101130.38
2022-08-21T23:19:37.979Z,101125.78
2022-08-21T23:22:29.197Z,101126.59
2022-08-21T23:25:16.468Z,101126.59
2022-08-21T23:28:04.122Z,101124.75
2022-08-21T23:30:43.977Z,101125.25
2022-08-21T23:33:47.357Z,101127.63
2022-08-21T23:36:47.845Z,101126.53
2022-08-21T23:39:32.625Z,101118.03
2022-08-21T23:42:12.495Z,101126.78
2022-08-21T23:44:54.823Z,101122.19
2022-08-21T23:47:38.408Z,101123.38
2022-08-21T23:50:14.659Z,101123.88
2022-08-21T23:53:08.903Z,101121.69
2022-08-21T23:55:55.796Z,101124.97
2022-08-21T23:58:40.623Z,101120.84
